createdAt,value
2019-03-19T00:01:53.946Z,3.10
2019-03-19T00:04:24.006Z,3.10
2019-03-19T00:06:53.880Z,2.90
2019-03-19T00:09:23.381Z,2.80
2019-03-19T00:11:52.906Z,2.90
2019-03-19T00:14:23.004Z,2.90
2019-03-19T00:16:52.664Z,3.00
2019-03-19T00:19:22.839Z,2.90
2019-03-19T00:21:52.606Z,2.90
2019-03-19T00:24:23.481Z,2.90
2019-03-19T00:29:29.042Z,2.90
2019-03-19T00:31:59.543Z,2.80
2019-03-19T00:34:29.578Z,2.90
2019-03-19T00:36:59.484Z,2.90
2019-03-19T00:39:29.968Z,2.90
2019-03-19T00:42:01.285Z,2.80
2019-03-19T00:44:31.451Z,2.90
2019-03-19T00:47:01.380Z,2.80
2019-03-19T00:49:32.650Z,2.70
2019-03-19T00:52:03.055Z,2.80
2019-03-19T00:54:32.944Z,2.70
2019-03-19T00:57:03.001Z,2.80
2019-03-19T00:59:32.905Z,2.80
2019-03-19T01:02:03.041Z,2.60
2019-03-19T01:04:34.195Z,2.70
2019-03-19T01:07:04.194Z,2.70
2019-03-19T01:09:35.449Z,2.70
2019-03-19T01:12:06.439Z,2.60
2019-03-19T01:14:36.000Z,2.70
2019-03-19T01:17:05.880Z,2.70
2019-03-19T01:19:35.688Z,2.70
2019-03-19T01:22:05.439Z,2.60
2019-03-19T01:24:35.191Z,2.60
2019-03-19T01:27:04.922Z,2.70
2019-03-19T01:29:35.189Z,2.70
2019-03-19T01:32:08.204Z,2.70
2019-03-19T01:34:37.797Z,2.60
2019-03-19T01:37:07.766Z,2.60
2019-03-19T01:39:37.965Z,2.60
2019-03-19T01:42:08.056Z,2.50
2019-03-19T01:44:37.773Z,2.50
2019-03-19T01:47:07.940Z,2.60
2019-03-19T01:49:37.765Z,2.60
2019-03-19T01:52:07.593Z,2.60
2019-03-19T01:54:37.130Z,2.60
2019-03-19T01:57:06.493Z,2.60
2019-03-19T01:59:36.386Z,2.60
2019-03-19T02:02:06.664Z,2.60
2019-03-19T02:04:36.586Z,2.60
2019-03-19T02:07:06.277Z,2.60
2019-03-19T02:09:36.076Z,2.70
2019-03-19T02:12:06.448Z,2.60
2019-03-19T02:14:36.756Z,2.50
2019-03-19T02:17:06.869Z,2.50
2019-03-19T02:19:36.759Z,2.50
2019-03-19T02:22:07.535Z,2.60
2019-03-19T02:24:37.174Z,2.60
2019-03-19T02:27:06.975Z,2.60
2019-03-19T02:29:38.113Z,2.60
2019-03-19T02:32:08.298Z,2.60
2019-03-19T02:34:38.338Z,2.70
2019-03-19T02:37:08.150Z,2.70
2019-03-19T02:39:37.973Z,2.70
2019-03-19T02:42:07.771Z,2.70
2019-03-19T02:44:37.789Z,2.80
2019-03-19T02:47:07.664Z,2.80
2019-03-19T02:49:37.056Z,2.80
2019-03-19T02:52:06.907Z,2.80
2019-03-19T02:54:36.102Z,2.70
2019-03-19T02:57:06.234Z,2.50
2019-03-19T02:59:36.151Z,2.50
2019-03-19T03:02:05.798Z,2.60
2019-03-19T03:04:35.701Z,2.60
2019-03-19T03:07:05.888Z,2.60
2019-03-19T03:09:38.899Z,2.60
2019-03-19T03:12:08.661Z,2.60
2019-03-19T03:14:38.641Z,2.60
2019-03-19T03:17:08.083Z,2.60
2019-03-19T03:19:37.927Z,2.60
2019-03-19T03:22:07.674Z,2.70
2019-03-19T03:24:37.650Z,2.70
2019-03-19T03:27:08.425Z,2.70
2019-03-19T03:29:38.809Z,2.70
2019-03-19T03:32:08.552Z,2.80
2019-03-19T03:34:39.030Z,2.80
2019-03-19T03:37:08.624Z,2.80
2019-03-19T03:39:38.226Z,2.80
2019-03-19T03:42:07.934Z,2.70
2019-03-19T03:44:37.727Z,2.70
2019-03-19T03:47:07.334Z,2.70
2019-03-19T03:49:36.957Z,2.70
2019-03-19T03:52:06.605Z,2.70
2019-03-19T03:54:36.260Z,2.70
2019-03-19T03:57:09.040Z,2.70
2019-03-19T03:59:38.990Z,2.70
2019-03-19T04:02:08.599Z,2.60
2019-03-19T04:04:38.267Z,2.50
2019-03-19T04:07:08.432Z,2.60
2019-03-19T04:09:37.921Z,2.60
2019-03-19T04:12:07.704Z,2.60
2019-03-19T04:14:37.569Z,2.70
2019-03-19T04:17:07.080Z,2.60
2019-03-19T04:19:36.804Z,2.60
2019-03-19T04:22:06.556Z,2.60
2019-03-19T04:24:36.182Z,2.70
2019-03-19T04:27:15.249Z,2.70
2019-03-19T04:29:38.150Z,2.70
2019-03-19T04:32:07.791Z,2.70
2019-03-19T04:34:37.667Z,2.70
2019-03-19T04:37:07.205Z,2.70
2019-03-19T04:39:37.146Z,2.50
2019-03-19T04:42:06.535Z,2.50
2019-03-19T04:44:36.328Z,2.50
2019-03-19T04:47:05.497Z,2.50
2019-03-19T04:49:34.779Z,2.50
2019-03-19T04:52:04.421Z,2.50
2019-03-19T04:54:34.060Z,2.50
2019-03-19T04:57:03.784Z,2.60
2019-03-19T04:59:33.736Z,2.60
2019-03-19T05:02:05.567Z,2.60
2019-03-19T05:04:35.638Z,2.50
2019-03-19T05:07:06.010Z,2.60
2019-03-19T05:09:36.019Z,2.60
2019-03-19T05:12:06.790Z,2.60
2019-03-19T05:14:36.826Z,2.50
2019-03-19T05:17:06.436Z,2.40
2019-03-19T05:19:36.856Z,2.30
2019-03-19T05:22:06.334Z,2.40
2019-03-19T05:24:36.055Z,2.50
2019-03-19T05:27:06.379Z,2.50
2019-03-19T05:33:04.909Z,2.40
2019-03-19T05:35:35.956Z,2.50
2019-03-19T05:38:05.593Z,2.40
2019-03-19T05:40:35.935Z,2.50
2019-03-19T05:43:05.775Z,2.60
2019-03-19T05:45:35.706Z,2.60
2019-03-19T05:48:05.424Z,2.70
2019-03-19T05:50:39.521Z,2.70
2019-03-19T05:53:09.703Z,2.70
2019-03-19T05:55:40.058Z,2.80
2019-03-19T05:58:10.419Z,2.80
2019-03-19T06:00:43.623Z,2.70
2019-03-19T06:03:15.964Z,2.60
2019-03-19T06:05:45.935Z,2.70
2019-03-19T06:08:15.835Z,2.80
2019-03-19T06:10:45.769Z,2.90
2019-03-19T06:13:19.223Z,3.00
2019-03-19T06:15:49.299Z,2.90
2019-03-19T06:18:19.378Z,2.90
2019-03-19T06:20:49.341Z,2.90
2019-03-19T06:23:19.560Z,2.90
2019-03-19T06:25:56.072Z,2.80
2019-03-19T06:28:25.879Z,2.90
2019-03-19T06:30:55.922Z,3.00
2019-03-19T06:33:26.119Z,3.00
2019-03-19T06:35:56.151Z,3.00
2019-03-19T06:38:26.013Z,3.00
2019-03-19T06:40:55.755Z,3.10
2019-03-19T06:43:25.796Z,3.10
2019-03-19T06:45:55.672Z,3.10
2019-03-19T06:48:25.534Z,3.10
2019-03-19T06:50:55.093Z,3.20
2019-03-19T06:53:24.800Z,3.20
2019-03-19T06:55:54.555Z,3.30
2019-03-19T06:58:24.365Z,3.20
2019-03-19T07:00:53.825Z,3.20
2019-03-19T07:03:23.437Z,3.30
2019-03-19T07:05:52.948Z,3.40
2019-03-19T07:08:22.649Z,3.40
2019-03-19T07:10:52.441Z,3.60
2019-03-19T07:13:22.178Z,3.70
2019-03-19T07:15:51.987Z,3.80
2019-03-19T07:18:21.628Z,3.90
2019-03-19T07:20:51.399Z,3.90
2019-03-19T07:23:21.449Z,3.90
2019-03-19T07:25:51.038Z,4.00
2019-03-19T07:28:22.378Z,4.10
2019-03-19T07:30:52.535Z,4.10
2019-03-19T07:33:23.289Z,4.20
2019-03-19T07:35:54.878Z,4.30
2019-03-19T07:38:24.693Z,4.40
2019-03-19T07:40:54.580Z,4.50
2019-03-19T07:43:24.643Z,4.50
2019-03-19T07:45:54.521Z,4.50
2019-03-19T07:48:24.468Z,4.60
2019-03-19T07:50:54.024Z,4.60
2019-03-19T07:53:24.276Z,4.70
2019-03-19T07:55:55.642Z,4.80
2019-03-19T07:58:35.712Z,5.00
2019-03-19T08:00:58.575Z,5.00
2019-03-19T08:26:31.721Z,5.20
2019-03-19T09:21:25.704Z,7.10
2019-03-19T09:24:06.696Z,6.90
2019-03-19T09:26:47.883Z,6.90
2019-03-19T09:29:21.026Z,6.90
2019-03-19T09:31:58.350Z,6.90
2019-03-19T09:34:37.736Z,6.80
2019-03-19T09:38:02.463Z,7.00
2019-03-19T09:43:11.687Z,7.40
2019-03-19T09:45:44.912Z,7.40
2019-03-19T09:53:47.561Z,7.40
2019-03-19T09:56:23.134Z,7.20
2019-03-19T09:58:53.761Z,7.10
2019-03-19T10:01:24.751Z,6.90
2019-03-19T10:03:58.693Z,6.80
2019-03-19T10:06:29.097Z,6.80
2019-03-19T10:09:03.421Z,7.00
2019-03-19T10:11:53.319Z,7.20
2019-03-19T10:14:23.378Z,7.30
2019-03-19T10:16:53.364Z,7.50
2019-03-19T10:19:23.840Z,7.70
2019-03-19T10:21:53.611Z,7.70
2019-03-19T10:24:26.450Z,7.80
2019-03-19T10:26:59.332Z,7.90
2019-03-19T10:29:37.827Z,8.00
2019-03-19T10:32:01.464Z,8.20
2019-03-19T10:37:09.901Z,8.40
2019-03-19T10:39:39.493Z,8.50
2019-03-19T10:42:09.007Z,8.70
2019-03-19T10:44:38.940Z,8.70
2019-03-19T10:47:08.767Z,8.80
2019-03-19T10:49:38.282Z,8.80
2019-03-19T10:52:07.714Z,8.70
2019-03-19T10:54:37.485Z,8.30
2019-03-19T10:57:07.117Z,8.10
2019-03-19T10:59:36.882Z,8.00
2019-03-19T11:02:07.293Z,7.90
2019-03-19T11:04:37.439Z,8.00
2019-03-19T11:07:07.423Z,8.20
2019-03-19T11:09:37.309Z,8.50
2019-03-19T11:12:06.937Z,8.60
2019-03-19T11:14:36.798Z,8.70
2019-03-19T11:17:07.066Z,8.90
2019-03-19T11:19:37.281Z,8.90
2019-03-19T11:22:07.615Z,8.90
2019-03-19T11:24:44.981Z,8.90
2019-03-19T11:27:14.992Z,8.90
2019-03-19T11:29:46.887Z,9.00
2019-03-19T11:32:17.596Z,9.30
2019-03-19T11:34:47.633Z,9.30
2019-03-19T11:37:19.027Z,9.20
2019-03-19T11:39:49.879Z,9.20
2019-03-19T11:42:20.042Z,9.00
2019-03-19T11:44:50.362Z,8.80
2019-03-19T11:47:20.132Z,8.70
2019-03-19T11:49:49.914Z,8.60
2019-03-19T11:52:25.049Z,8.50
2019-03-19T11:54:54.335Z,8.60
2019-03-19T11:57:24.066Z,8.80
2019-03-19T11:59:53.866Z,8.80
2019-03-19T12:02:26.174Z,8.90
2019-03-19T12:04:55.519Z,8.90
2019-03-19T12:07:25.887Z,8.90
2019-03-19T12:10:01.384Z,8.90
2019-03-19T12:12:31.441Z,8.80
2019-03-19T12:15:02.007Z,8.80
2019-03-19T12:17:32.529Z,8.80
2019-03-19T12:20:02.844Z,8.80
2019-03-19T12:22:33.270Z,8.70
2019-03-19T12:25:03.215Z,8.80
2019-03-19T12:27:33.395Z,8.80
2019-03-19T12:30:03.562Z,8.90
2019-03-19T12:32:34.066Z,9.00
2019-03-19T12:35:10.554Z,9.10
2019-03-19T12:37:40.307Z,9.20
2019-03-19T12:40:11.776Z,9.10
2019-03-19T12:42:46.818Z,9.10
2019-03-19T12:45:17.206Z,9.00
2019-03-19T12:47:47.279Z,8.80
2019-03-19T12:50:21.336Z,8.70
2019-03-19T12:52:52.710Z,8.60
2019-03-19T12:55:22.507Z,8.50
2019-03-19T12:57:52.345Z,8.60
2019-03-19T13:00:33.343Z,8.50
2019-03-19T13:02:58.225Z,8.70
2019-03-19T13:05:27.791Z,8.70
2019-03-19T13:07:57.624Z,8.60
2019-03-19T13:10:27.996Z,8.60
2019-03-19T13:12:57.809Z,8.50
2019-03-19T13:15:27.839Z,8.30
2019-03-19T13:17:58.643Z,8.20
2019-03-19T13:20:28.778Z,8.20
2019-03-19T13:22:58.646Z,8.20
2019-03-19T13:25:28.726Z,8.20
2019-03-19T13:27:58.913Z,8.10
2019-03-19T13:30:28.659Z,8.00
2019-03-19T13:32:59.157Z,7.90
2019-03-19T13:35:28.746Z,7.80
2019-03-19T13:37:57.916Z,7.90
2019-03-19T13:40:27.490Z,7.90
2019-03-19T13:42:57.758Z,8.00
2019-03-19T13:45:27.350Z,8.20
2019-03-19T13:47:57.930Z,8.20
2019-03-19T13:50:27.767Z,8.40
2019-03-19T13:52:57.586Z,8.70
2019-03-19T13:55:27.280Z,8.80
2019-03-19T13:57:56.900Z,9.00
2019-03-19T14:00:26.928Z,9.10
2019-03-19T14:02:59.214Z,9.20
2019-03-19T14:05:31.327Z,9.20
2019-03-19T14:08:01.264Z,8.90
2019-03-19T14:10:30.986Z,8.70
2019-03-19T14:13:00.666Z,8.50
2019-03-19T14:15:31.465Z,8.40
2019-03-19T14:18:03.571Z,8.20
2019-03-19T14:21:20.234Z,8.20
2019-03-19T14:23:49.952Z,8.30
2019-03-19T14:26:20.046Z,8.50
2019-03-19T14:28:51.485Z,8.50
2019-03-19T14:31:21.862Z,8.50
2019-03-19T14:34:50.094Z,8.50
2019-03-19T14:45:50.213Z,8.80
2019-03-19T14:48:22.803Z,9.00
2019-03-19T14:50:56.446Z,9.00
2019-03-19T14:53:26.495Z,9.20
2019-03-19T14:56:05.132Z,9.20
2019-03-19T14:58:38.754Z,9.20
2019-03-19T15:01:31.156Z,9.10
2019-03-19T15:03:41.576Z,9.10
2019-03-19T15:06:12.882Z,9.10
2019-03-19T15:08:43.437Z,9.10
2019-03-19T15:11:13.197Z,9.10
2019-03-19T15:16:19.451Z,8.90
2019-03-19T16:15:48.154Z,7.80
2019-03-19T16:18:25.436Z,7.90
2019-03-19T16:20:57.527Z,8.00
2019-03-19T16:23:27.809Z,8.00
2019-03-19T16:25:58.775Z,7.90
2019-03-19T16:28:32.487Z,7.90
2019-03-19T16:56:14.719Z,7.40
2019-03-19T16:58:48.535Z,7.80
2019-03-19T17:01:22.866Z,8.10
2019-03-19T17:04:02.415Z,8.10
2019-03-19T17:09:09.371Z,7.60
2019-03-19T17:11:39.459Z,7.30
2019-03-19T17:14:12.703Z,7.10
2019-03-19T17:16:43.416Z,7.00
2019-03-19T17:19:13.960Z,6.90
2019-03-19T17:21:44.399Z,6.80
2019-03-19T17:24:16.276Z,6.70
2019-03-19T17:26:46.533Z,6.70
2019-03-19T17:29:16.663Z,6.60
2019-03-19T17:31:46.346Z,6.50
2019-03-19T17:34:19.302Z,6.50
2019-03-19T17:36:48.918Z,6.40
2019-03-19T17:39:19.459Z,6.30
2019-03-19T17:41:49.385Z,6.20
2019-03-19T17:44:20.114Z,6.20
2019-03-19T17:46:49.739Z,6.20
2019-03-19T17:52:49.960Z,6.00
2019-03-19T17:55:19.898Z,6.00
2019-03-19T17:57:49.716Z,5.90
2019-03-19T18:00:24.648Z,5.90
2019-03-19T18:02:54.706Z,5.80
2019-03-19T18:05:24.918Z,5.70
2019-03-19T18:07:54.842Z,5.70
2019-03-19T18:10:24.580Z,5.60
2019-03-19T18:13:06.493Z,5.60
2019-03-19T18:16:07.637Z,5.60
2019-03-19T18:18:39.117Z,5.50
2019-03-19T18:21:08.903Z,5.40
2019-03-19T18:23:39.157Z,5.30
2019-03-19T18:26:21.594Z,5.30
2019-03-19T18:35:09.659Z,5.10
2019-03-19T18:37:44.551Z,5.10
2019-03-19T18:40:15.239Z,5.00
2019-03-19T18:42:57.673Z,5.10
2019-03-19T18:45:29.295Z,5.00
2019-03-19T18:47:59.300Z,4.90
2019-03-19T18:50:36.979Z,4.90
2019-03-19T18:53:07.568Z,4.80
2019-03-19T18:55:37.758Z,4.60
2019-03-19T18:58:07.945Z,4.60
2019-03-19T19:00:37.918Z,4.40
2019-03-19T19:03:07.883Z,4.40
2019-03-19T19:05:38.232Z,4.40
2019-03-19T19:10:57.283Z,4.50
2019-03-19T19:13:38.838Z,4.50
2019-03-19T19:16:30.629Z,4.50
2019-03-19T19:19:29.079Z,4.50
2019-03-19T19:21:59.931Z,4.40
2019-03-19T19:27:21.498Z,4.20
2019-03-19T19:29:56.376Z,4.20
2019-03-19T19:32:26.642Z,4.20
2019-03-19T19:34:59.254Z,4.10
2019-03-19T19:41:11.091Z,4.00
2019-03-19T19:43:57.097Z,3.90
2019-03-19T19:47:17.882Z,3.80
2019-03-19T19:49:52.826Z,3.80
2019-03-19T19:52:25.419Z,3.60
2019-03-19T19:54:55.278Z,3.70
2019-03-19T19:57:25.634Z,3.60
2019-03-19T19:59:55.790Z,3.60
2019-03-19T20:02:30.221Z,3.50
2019-03-19T20:07:45.970Z,3.60
2019-03-19T20:10:20.396Z,3.60
2019-03-19T20:13:31.182Z,3.60
2019-03-19T20:16:27.534Z,3.70
2019-03-19T20:22:39.930Z,3.80
2019-03-19T20:25:47.742Z,3.70
2019-03-19T20:29:29.136Z,3.60
2019-03-19T20:32:20.487Z,3.60
2019-03-19T20:35:28.886Z,3.60
2019-03-19T20:41:09.963Z,3.40
2019-03-19T20:43:43.814Z,3.40
2019-03-19T20:46:14.308Z,3.40
2019-03-19T20:48:45.248Z,3.40
2019-03-19T20:51:17.117Z,3.50
2019-03-19T20:53:48.321Z,3.50
2019-03-19T20:56:18.827Z,3.50
2019-03-19T20:58:49.359Z,3.50
2019-03-19T21:01:19.233Z,3.50
2019-03-19T21:03:49.275Z,3.40
2019-03-19T21:06:19.041Z,3.30
2019-03-19T21:08:49.077Z,3.30
2019-03-19T21:11:20.160Z,3.40
2019-03-19T21:13:50.383Z,3.30
2019-03-19T21:16:20.382Z,3.10
2019-03-19T21:18:50.314Z,2.90
2019-03-19T21:21:20.468Z,2.70
2019-03-19T21:23:50.175Z,2.60
2019-03-19T21:26:19.770Z,2.50
2019-03-19T21:28:49.407Z,2.40
2019-03-19T21:31:18.978Z,2.40
2019-03-19T21:33:51.527Z,2.30
2019-03-19T21:36:21.210Z,2.20
2019-03-19T21:38:51.064Z,2.20
2019-03-19T21:41:21.144Z,2.30
2019-03-19T21:43:52.020Z,2.50
2019-03-19T21:46:21.482Z,2.50
2019-03-19T21:48:51.259Z,2.50
2019-03-19T21:51:20.922Z,2.50
2019-03-19T21:53:51.453Z,2.40
2019-03-19T21:56:21.858Z,2.40
2019-03-19T21:58:52.291Z,2.50
2019-03-19T22:01:22.368Z,2.40
2019-03-19T22:04:02.652Z,2.40
2019-03-19T22:06:24.878Z,2.20
2019-03-19T22:08:55.107Z,2.20
2019-03-19T22:11:25.779Z,2.30
2019-03-19T22:13:55.575Z,2.40
2019-03-19T22:19:00.435Z,2.50
2019-03-19T22:21:30.935Z,2.40
2019-03-19T22:24:00.519Z,2.50
2019-03-19T22:26:30.554Z,2.50
2019-03-19T22:29:01.223Z,2.50
2019-03-19T22:31:33.169Z,2.60
2019-03-19T22:34:13.541Z,2.60
2019-03-19T22:36:38.506Z,2.60
2019-03-19T22:39:09.780Z,2.50
2019-03-19T22:41:43.381Z,2.60
2019-03-19T22:44:16.456Z,2.50
2019-03-19T22:46:50.873Z,2.40
2019-03-19T22:49:24.290Z,2.20
2019-03-19T22:51:54.853Z,2.10
2019-03-19T22:54:26.316Z,2.00
2019-03-19T22:56:56.472Z,2.10
2019-03-19T22:59:26.255Z,2.20
2019-03-19T23:01:56.009Z,2.30
2019-03-19T23:04:27.562Z,2.30
2019-03-19T23:06:57.465Z,2.20
2019-03-19T23:09:28.186Z,2.20
2019-03-19T23:12:02.750Z,2.20
2019-03-19T23:14:35.676Z,2.20
2019-03-19T23:17:06.248Z,2.20
2019-03-19T23:19:36.616Z,2.20
2019-03-19T23:22:15.699Z,2.20
2019-03-19T23:24:49.399Z,2.30
2019-03-19T23:27:25.245Z,2.30
2019-03-19T23:29:56.167Z,2.20
2019-03-19T23:32:27.640Z,2.20
2019-03-19T23:34:57.698Z,2.20
2019-03-19T23:37:30.056Z,2.20
2019-03-19T23:39:59.867Z,2.20
2019-03-19T23:42:29.544Z,2.10
2019-03-19T23:44:59.201Z,2.10
2019-03-19T23:47:30.053Z,2.20
2019-03-19T23:50:00.133Z,2.20
2019-03-19T23:52:32.867Z,2.10
2019-03-19T23:55:02.714Z,1.80
2019-03-19T23:57:43.110Z,1.60
